sensor_id;sensor_type;location;lat;lon;timestamp;pressure;altitude;pressure_sealevel;temperature;humidity
12913;BME280;6524;51.368;11.984;2023-09-18T04:00:35;155438.94;;;14.92;73.72
12913;BME280;6524;51.368;11.984;2023-09-18T04:05:36;155458.59;;;15.00;73.33
12913;BME280;6524;51.368;11.984;2023-09-18T04:10:36;155438.94;;;14.92;73.19
12913;BME280;6524;51.368;11.984;2023-09-18T04:15:37;155436.34;;;14.91;73.04
12913;BME280;6524;51.368;11.984;2023-09-18T04:20:38;155438.94;;;14.92;73.17
12913;BME280;6524;51.368;11.984;2023-09-18T04:25:38;155399.69;;;14.77;74.01
12913;BME280;6524;51.368;11.984;2023-09-18T04:30:38;155322.50;;;14.47;74.80
12913;BME280;6524;51.368;11.984;2023-09-18T04:35:39;155310.69;;;14.42;75.56
12913;BME280;6524;51.368;11.984;2023-09-18T04:40:39;155266.25;;;14.25;76.30
12913;BME280;6524;51.368;11.984;2023-09-18T04:45:39;155284.56;;;14.32;76.01
12913;BME280;6524;51.368;11.984;2023-09-18T04:50:40;155241.41;;;14.15;77.33
12913;BME280;6524;51.368;11.984;2023-09-18T04:55:41;155241.41;;;14.15;76.48
12913;BME280;6524;51.368;11.984;2023-09-18T05:00:41;155264.91;;;14.24;76.16
12913;BME280;6524;51.368;11.984;2023-09-18T05:05:41;155208.69;;;14.02;76.79
12913;BME280;6524;51.368;11.984;2023-09-18T05:10:44;155259.72;;;14.22;76.42
12913;BME280;6524;51.368;11.984;2023-09-18T05:15:44;155261.00;;;14.23;76.62
12913;BME280;6524;51.368;11.984;2023-09-18T05:20:44;155241.41;;;14.15;76.16
12913;BME280;6524;51.368;11.984;2023-09-18T05:25:45;155271.47;;;14.27;75.48
12913;BME280;6524;51.368;11.984;2023-09-18T05:30:45;155267.56;;;14.25;75.58
12913;BME280;6524;51.368;11.984;2023-09-18T05:35:46;155326.38;;;14.48;74.62
12913;BME280;6524;51.368;11.984;2023-09-18T05:40:46;155318.53;;;14.45;75.11
12913;BME280;6524;51.368;11.984;2023-09-18T05:45:47;155313.34;;;14.43;75.33
12913;BME280;6524;51.368;11.984;2023-09-18T05:50:49;155349.97;;;14.58;75.09
12913;BME280;6524;51.368;11.984;2023-09-18T05:55:50;155361.78;;;14.62;74.30
12913;BME280;6524;51.368;11.984;2023-09-18T06:00:50;155347.38;;;14.56;74.36
12913;BME280;6524;51.368;11.984;2023-09-18T06:05:51;155389.22;;;14.73;74.08
12913;BME280;6524;51.368;11.984;2023-09-18T06:10:51;155397.09;;;14.76;73.94
12913;BME280;6524;51.368;11.984;2023-09-18T06:15:53;155479.50;;;15.08;73.08
12913;BME280;6524;51.368;11.984;2023-09-18T06:20:54;155510.91;;;15.20;71.93
12913;BME280;6524;51.368;11.984;2023-09-18T06:25:54;155556.75;;;15.38;71.60
12913;BME280;6524;51.368;11.984;2023-09-18T06:30:56;155613.03;;;15.60;69.86
12913;BME280;6524;51.368;11.984;2023-09-18T06:35:56;155673.22;;;15.84;69.73
12913;BME280;6524;51.368;11.984;2023-09-18T06:40:57;155771.50;;;16.22;69.20
12913;BME280;6524;51.368;11.984;2023-09-18T06:45:57;155857.91;;;16.56;67.80
12913;BME280;6524;51.368;11.984;2023-09-18T06:51:00;155945.66;;;16.90;67.19
12913;BME280;6524;51.368;11.984;2023-09-18T06:56:00;156036.16;;;17.25;65.54
12913;BME280;6524;51.368;11.984;2023-09-18T07:01:01;156264.25;;;18.14;63.03
12913;BME280;6524;51.368;11.984;2023-09-18T07:06:02;156285.22;;;18.22;62.33
12913;BME280;6524;51.368;11.984;2023-09-18T07:11:02;156285.22;;;18.22;63.31
12913;BME280;6524;51.368;11.984;2023-09-18T07:16:03;156328.47;;;18.39;62.55
12913;BME280;6524;51.368;11.984;2023-09-18T07:21:03;156346.88;;;18.46;63.52
12913;BME280;6524;51.368;11.984;2023-09-18T07:26:03;156440.00;;;18.83;62.14
12913;BME280;6524;51.368;11.984;2023-09-18T07:31:08;156688.03;;;19.79;59.48
12913;BME280;6524;51.368;11.984;2023-09-18T07:36:09;156707.75;;;19.87;58.77
12913;BME280;6524;51.368;11.984;2023-09-18T07:41:12;156736.66;;;19.98;58.90
12913;BME280;6524;51.368;11.984;2023-09-18T07:46:12;156713.03;;;19.89;58.75
12913;BME280;6524;51.368;11.984;2023-09-18T07:51:13;156659.16;;;19.68;60.26
12913;BME280;6524;51.368;11.984;2023-09-18T07:56:13;156694.59;;;19.82;60.24
12913;BME280;6524;51.368;11.984;2023-09-18T08:01:13;156815.38;;;20.29;58.97
12913;BME280;6524;51.368;11.984;2023-09-18T08:06:16;156894.22;;;20.60;58.04
12913;BME280;6524;51.368;11.984;2023-09-18T08:11:19;156886.31;;;20.57;57.75
12913;BME280;6524;51.368;11.984;2023-09-18T08:16:19;156944.09;;;20.79;57.57
12913;BME280;6524;51.368;11.984;2023-09-18T08:21:20;156915.22;;;20.68;57.11
12913;BME280;6524;51.368;11.984;2023-09-18T08:26:20;156873.22;;;20.51;56.04
12913;BME280;6524;51.368;11.984;2023-09-18T08:31:20;156875.84;;;20.52;55.84
12913;BME280;6524;51.368;11.984;2023-09-18T08:36:21;156875.84;;;20.52;55.76
12913;BME280;6524;51.368;11.984;2023-09-18T08:41:23;156881.09;;;20.55;55.67
12913;BME280;6524;51.368;11.984;2023-09-18T08:46:26;156828.50;;;20.34;56.30
12913;BME280;6524;51.368;11.984;2023-09-18T08:51:27;156849.53;;;20.42;56.72
12913;BME280;6524;51.368;11.984;2023-09-18T08:56:28;156933.59;;;20.75;56.49
12913;BME280;6524;51.368;11.984;2023-09-18T09:01:29;156860.03;;;20.46;56.67
12913;BME280;6524;51.368;11.984;2023-09-18T09:06:29;156909.97;;;20.66;58.00
12913;BME280;6524;51.368;11.984;2023-09-18T09:11:30;156878.44;;;20.53;61.24
12913;BME280;6524;51.368;11.984;2023-09-18T09:16:30;156836.41;;;20.37;59.49
12913;BME280;6524;51.368;11.984;2023-09-18T09:21:41;156837.69;;;20.38;61.95
12913;BME280;6524;51.368;11.984;2023-09-18T09:26:43;156835.09;;;20.37;60.38
12913;BME280;6524;51.368;11.984;2023-09-18T09:31:44;156894.22;;;20.60;60.57
12913;BME280;6524;51.368;11.984;2023-09-18T09:36:52;156906.06;;;20.64;60.11
12913;BME280;6524;51.368;11.984;2023-09-18T09:41:53;156806.19;;;20.25;60.66
12913;BME280;6524;51.368;11.984;2023-09-18T09:46:54;156829.81;;;20.35;60.98
12913;BME280;6524;51.368;11.984;2023-09-18T09:51:59;156760.28;;;20.07;61.65
12913;BME280;6524;51.368;11.984;2023-09-18T09:57:02;156794.41;;;20.21;61.46
12913;BME280;6524;51.368;11.984;2023-09-18T10:02:03;156831.13;;;20.35;61.63
12913;BME280;6524;51.368;11.984;2023-09-18T10:07:08;156841.66;;;20.39;61.84
12913;BME280;6524;51.368;11.984;2023-09-18T10:12:15;156883.72;;;20.56;61.71
12913;BME280;6524;51.368;11.984;2023-09-18T10:17:20;157046.59;;;21.19;60.45
12913;BME280;6524;51.368;11.984;2023-09-18T10:22:31;157572.47;;;23.23;54.81
12913;BME280;6524;51.368;11.984;2023-09-18T10:27:39;157515.91;;;23.01;54.69
12913;BME280;6524;51.368;11.984;2023-09-18T10:32:41;157369.94;;;22.45;57.44
12913;BME280;6524;51.368;11.984;2023-09-18T10:37:42;157180.63;;;21.71;58.08
12913;BME280;6524;51.368;11.984;2023-09-18T10:42:46;157149.09;;;21.59;59.50
12913;BME280;6524;51.368;11.984;2023-09-18T10:47:48;157046.59;;;21.19;61.05
12913;BME280;6524;51.368;11.984;2023-09-18T10:52:49;157028.19;;;21.12;61.68
12913;BME280;6524;51.368;11.984;2023-09-18T10:57:53;156920.44;;;20.70;62.22
12913;BME280;6524;51.368;11.984;2023-09-18T11:02:55;156908.66;;;20.65;62.53
12913;BME280;6524;51.368;11.984;2023-09-18T11:08:34;156944.09;;;20.79;62.82
12913;BME280;6524;51.368;11.984;2023-09-18T11:13:38;156946.75;;;20.80;62.17
12913;BME280;6524;51.368;11.984;2023-09-18T11:18:39;156903.38;;;20.63;62.19
12913;BME280;6524;51.368;11.984;2023-09-18T11:23:39;156898.16;;;20.61;63.10
12913;BME280;6524;51.368;11.984;2023-09-18T11:28:47;156881.09;;;20.55;64.70
12913;BME280;6524;51.368;11.984;2023-09-18T11:33:52;156879.75;;;20.54;63.14
12913;BME280;6524;51.368;11.984;2023-09-18T11:38:54;156917.84;;;20.69;63.60
12913;BME280;6524;51.368;11.984;2023-09-18T11:49:11;156875.84;;;20.52;63.84
12913;BME280;6524;51.368;11.984;2023-09-18T11:54:12;156916.53;;;20.68;64.16
12913;BME280;6524;51.368;11.984;2023-09-18T11:59:13;156959.84;;;20.85;63.94
12913;BME280;6524;51.368;11.984;2023-09-18T12:04:13;156980.88;;;20.93;63.76
12913;BME280;6524;51.368;11.984;2023-09-18T12:09:14;156996.66;;;20.99;63.83
12913;BME280;6524;51.368;11.984;2023-09-18T12:14:18;156965.13;;;20.87;63.61
12913;BME280;6524;51.368;11.984;2023-09-18T12:19:19;156988.78;;;20.96;64.05
12913;BME280;6524;51.368;11.984;2023-09-18T12:24:24;156995.34;;;20.99;63.04
12913;BME280;6524;51.368;11.984;2023-09-18T12:29:28;156944.09;;;20.79;64.98
12913;BME280;6524;51.368;11.984;2023-09-18T12:34:28;156942.78;;;20.79;63.65
12913;BME280;6524;51.368;11.984;2023-09-18T12:39:32;156967.72;;;20.88;64.33
12913;BME280;6524;51.368;11.984;2023-09-18T12:44:32;156988.78;;;20.96;64.08
12913;BME280;6524;51.368;11.984;2023-09-18T12:49:33;156938.88;;;20.77;64.54
12913;BME280;6524;51.368;11.984;2023-09-18T12:54:41;156983.50;;;20.94;64.52
12913;BME280;6524;51.368;11.984;2023-09-18T12:59:42;156959.84;;;20.85;63.80
12913;BME280;6524;51.368;11.984;2023-09-18T13:04:51;156920.44;;;20.70;64.05
12913;BME280;6524;51.368;11.984;2023-09-18T13:10:02;156923.09;;;20.71;64.21
12913;BME280;6524;51.368;11.984;2023-09-18T13:15:04;156913.94;;;20.67;63.90
12913;BME280;6524;51.368;11.984;2023-09-18T13:20:10;156878.44;;;20.53;64.26
12913;BME280;6524;51.368;11.984;2023-09-18T13:25:19;156844.28;;;20.40;64.10
12913;BME280;6524;51.368;11.984;2023-09-18T13:30:20;156889.00;;;20.58;64.49
12913;BME280;6524;51.368;11.984;2023-09-18T13:35:22;156821.94;;;20.31;64.61
12913;BME280;6524;51.368;11.984;2023-09-18T13:40:23;156875.84;;;20.52;65.51
12913;BME280;6524;51.368;11.984;2023-09-18T13:45:24;156839.00;;;20.38;64.99
12913;BME280;6524;51.368;11.984;2023-09-18T13:50:25;156852.16;;;20.43;65.79
12913;BME280;6524;51.368;11.984;2023-09-18T13:55:25;156799.59;;;20.23;67.50
12913;BME280;6524;51.368;11.984;2023-09-18T14:00:26;156726.09;;;19.94;68.60
12913;BME280;6524;51.368;11.984;2023-09-18T14:05:27;156648.66;;;19.64;71.47
12913;BME280;6524;51.368;11.984;2023-09-18T14:10:30;156571.22;;;19.34;72.62
12913;BME280;6524;51.368;11.984;2023-09-18T14:15:30;156559.44;;;19.29;73.85
12913;BME280;6524;51.368;11.984;2023-09-18T14:20:30;156496.41;;;19.05;76.90
12913;BME280;6524;51.368;11.984;2023-09-18T14:25:31;156446.56;;;18.85;78.15
12913;BME280;6524;51.368;11.984;2023-09-18T14:30:32;156319.31;;;18.36;78.66
12913;BME280;6524;51.368;11.984;2023-09-18T14:35:33;156337.69;;;18.43;78.54
12913;BME280;6524;51.368;11.984;2023-09-18T14:40:33;156387.53;;;18.62;77.60
12913;BME280;6524;51.368;11.984;2023-09-18T14:45:33;156432.13;;;18.80;77.51
12913;BME280;6524;51.368;11.984;2023-09-18T14:50:35;156411.13;;;18.72;78.10
12913;BME280;6524;51.368;11.984;2023-09-18T14:55:35;156424.28;;;18.77;78.48
12913;BME280;6524;51.368;11.984;2023-09-18T15:00:36;156314.06;;;18.34;80.11
12913;BME280;6524;51.368;11.984;2023-09-18T15:05:36;156361.31;;;18.52;79.70
12913;BME280;6524;51.368;11.984;2023-09-18T15:10:36;156341.66;;;18.44;80.34
12913;BME280;6524;51.368;11.984;2023-09-18T15:15:36;156329.78;;;18.40;79.29
12913;BME280;6524;51.368;11.984;2023-09-18T15:20:37;156353.44;;;18.49;78.51
12913;BME280;6524;51.368;11.984;2023-09-18T15:25:40;156348.19;;;18.47;78.07
12913;BME280;6524;51.368;11.984;2023-09-18T15:30:43;156287.84;;;18.23;77.84
12913;BME280;6524;51.368;11.984;2023-09-18T15:35:44;156382.31;;;18.60;77.18
12913;BME280;6524;51.368;11.984;2023-09-18T15:40:45;156306.19;;;18.31;77.75
12913;BME280;6524;51.368;11.984;2023-09-18T15:45:47;156377.06;;;18.58;76.63
12913;BME280;6524;51.368;11.984;2023-09-18T15:50:47;156311.44;;;18.33;77.86
12913;BME280;6524;51.368;11.984;2023-09-18T15:55:48;156285.22;;;18.22;77.54
12913;BME280;6524;51.368;11.984;2023-09-18T16:00:50;156298.31;;;18.28;77.65
12913;BME280;6524;51.368;11.984;2023-09-18T16:05:51;156314.06;;;18.34;77.64
12913;BME280;6524;51.368;11.984;2023-09-18T16:10:53;156272.09;;;18.17;77.90
12913;BME280;6524;51.368;11.984;2023-09-18T16:15:54;156282.56;;;18.21;77.49
12913;BME280;6524;51.368;11.984;2023-09-18T16:20:56;156265.53;;;18.15;77.27
12913;BME280;6524;51.368;11.984;2023-09-18T16:25:56;156311.44;;;18.33;76.26
12913;BME280;6524;51.368;11.984;2023-09-18T16:30:57;156298.31;;;18.28;76.34
12913;BME280;6524;51.368;11.984;2023-09-18T16:36:04;156295.72;;;18.27;76.07
12913;BME280;6524;51.368;11.984;2023-09-18T16:41:05;156281.28;;;18.21;75.95
12913;BME280;6524;51.368;11.984;2023-09-18T16:46:06;156295.72;;;18.27;76.07
12913;BME280;6524;51.368;11.984;2023-09-18T16:51:06;156238.03;;;18.04;76.11
12913;BME280;6524;51.368;11.984;2023-09-18T16:56:09;156164.63;;;17.75;76.96
12913;BME280;6524;51.368;11.984;2023-09-18T17:01:09;156248.50;;;18.08;75.23
12913;BME280;6524;51.368;11.984;2023-09-18T17:06:11;156210.47;;;17.93;75.28
12913;BME280;6524;51.368;11.984;2023-09-18T17:11:11;156243.25;;;18.06;74.15
12913;BME280;6524;51.368;11.984;2023-09-18T17:16:12;156222.28;;;17.98;74.71
12913;BME280;6524;51.368;11.984;2023-09-18T17:21:13;156169.84;;;17.77;75.10
12913;BME280;6524;51.368;11.984;2023-09-18T17:26:15;156164.63;;;17.75;75.17
12913;BME280;6524;51.368;11.984;2023-09-18T17:31:16;156138.31;;;17.65;75.70
12913;BME280;6524;51.368;11.984;2023-09-18T17:36:17;156122.59;;;17.59;75.59
12913;BME280;6524;51.368;11.984;2023-09-18T17:41:18;156112.13;;;17.55;76.30
12913;BME280;6524;51.368;11.984;2023-09-18T17:46:18;156198.69;;;17.89;74.96
12913;BME280;6524;51.368;11.984;2023-09-18T17:51:18;156146.19;;;17.68;75.67
12913;BME280;6524;51.368;11.984;2023-09-18T17:56:19;156108.22;;;17.53;76.09
12913;BME280;6524;51.368;11.984;2023-09-18T18:01:19;156137.03;;;17.65;75.68
12913;BME280;6524;51.368;11.984;2023-09-18T18:06:20;156070.22;;;17.39;77.13
12913;BME280;6524;51.368;11.984;2023-09-18T18:11:20;156017.78;;;17.18;77.58
12913;BME280;6524;51.368;11.984;2023-09-18T18:16:22;155988.97;;;17.07;77.96
12913;BME280;6524;51.368;11.984;2023-09-18T18:21:23;156028.28;;;17.22;77.22
12913;BME280;6524;51.368;11.984;2023-09-18T18:26:23;155988.97;;;17.07;77.84
12913;BME280;6524;51.368;11.984;2023-09-18T18:31:27;156051.81;;;17.31;76.72
12913;BME280;6524;51.368;11.984;2023-09-18T18:36:30;155991.59;;;17.08;77.00
12913;BME280;6524;51.368;11.984;2023-09-18T18:41:31;155909.00;;;16.76;78.28
12913;BME280;6524;51.368;11.984;2023-09-18T18:46:33;155851.38;;;16.53;79.81
12913;BME280;6524;51.368;11.984;2023-09-18T18:51:34;155889.34;;;16.68;78.63
12913;BME280;6524;51.368;11.984;2023-09-18T18:56:35;155965.38;;;16.98;77.38
12913;BME280;6524;51.368;11.984;2023-09-18T19:01:35;155865.75;;;16.59;78.36
12913;BME280;6524;51.368;11.984;2023-09-18T19:06:36;155836.97;;;16.48;79.24
12913;BME280;6524;51.368;11.984;2023-09-18T19:11:37;155818.59;;;16.40;79.81
12913;BME280;6524;51.368;11.984;2023-09-18T19:16:37;155823.84;;;16.43;79.34
12913;BME280;6524;51.368;11.984;2023-09-18T19:27:06;155781.97;;;16.26;80.94
12913;BME280;6524;51.368;11.984;2023-09-18T19:32:07;155696.78;;;15.93;82.37
12913;BME280;6524;51.368;11.984;2023-09-18T19:37:07;155761.00;;;16.18;80.81
12913;BME280;6524;51.368;11.984;2023-09-18T19:42:08;155711.22;;;15.99;81.58
12913;BME280;6524;51.368;11.984;2023-09-18T19:47:08;155717.75;;;16.01;81.93
12913;BME280;6524;51.368;11.984;2023-09-18T19:52:09;155755.78;;;16.16;80.60
12913;BME280;6524;51.368;11.984;2023-09-18T19:57:14;155728.22;;;16.05;81.14
12913;BME280;6524;51.368;11.984;2023-09-18T20:02:17;155692.88;;;15.91;81.69
12913;BME280;6524;51.368;11.984;2023-09-18T20:07:18;155670.63;;;15.83;82.18
12913;BME280;6524;51.368;11.984;2023-09-18T20:12:18;155720.38;;;16.02;81.42
12913;BME280;6524;51.368;11.984;2023-09-18T20:17:20;155632.66;;;15.68;82.98
12913;BME280;6524;51.368;11.984;2023-09-18T20:22:21;155651.00;;;15.75;82.26
12913;BME280;6524;51.368;11.984;2023-09-18T20:27:22;155643.16;;;15.72;82.16
12913;BME280;6524;51.368;11.984;2023-09-18T20:32:23;155637.91;;;15.70;81.92
12913;BME280;6524;51.368;11.984;2023-09-18T20:37:23;155692.88;;;15.91;81.03
12913;BME280;6524;51.368;11.984;2023-09-18T20:42:24;155649.66;;;15.75;81.65
12913;BME280;6524;51.368;11.984;2023-09-18T20:47:24;155648.38;;;15.74;81.08
12913;BME280;6524;51.368;11.984;2023-09-18T20:52:25;155651.00;;;15.75;81.02
12913;BME280;6524;51.368;11.984;2023-09-18T20:57:26;155598.63;;;15.55;81.25
12913;BME280;6524;51.368;11.984;2023-09-18T21:02:26;155647.06;;;15.74;80.76
12913;BME280;6524;51.368;11.984;2023-09-18T21:07:27;155656.22;;;15.77;80.44
12913;BME280;6524;51.368;11.984;2023-09-18T21:12:29;155624.78;;;15.65;80.54
12913;BME280;6524;51.368;11.984;2023-09-18T21:17:29;155614.34;;;15.61;80.59
12913;BME280;6524;51.368;11.984;2023-09-18T21:22:31;155637.91;;;15.70;80.31
12913;BME280;6524;51.368;11.984;2023-09-18T21:27:33;155658.88;;;15.78;79.71
12913;BME280;6524;51.368;11.984;2023-09-18T21:32:33;155658.88;;;15.78;79.43
12913;BME280;6524;51.368;11.984;2023-09-18T21:37:34;155671.94;;;15.83;79.81
12913;BME280;6524;51.368;11.984;2023-09-18T21:42:34;155666.72;;;15.81;79.46
12913;BME280;6524;51.368;11.984;2023-09-18T21:47:36;155664.06;;;15.80;79.25
12913;BME280;6524;51.368;11.984;2023-09-18T21:52:36;155665.38;;;15.81;79.00
12913;BME280;6524;51.368;11.984;2023-09-18T21:57:37;155651.00;;;15.75;79.44
12913;BME280;6524;51.368;11.984;2023-09-18T22:02:38;155593.38;;;15.53;79.88
12913;BME280;6524;51.368;11.984;2023-09-18T22:07:38;155699.44;;;15.94;78.38
12913;BME280;6524;51.368;11.984;2023-09-18T22:12:39;155709.91;;;15.98;78.28
12913;BME280;6524;51.368;11.984;2023-09-18T22:17:39;155666.72;;;15.81;78.56
12913;BME280;6524;51.368;11.984;2023-09-18T22:22:40;155708.59;;;15.98;77.88
12913;BME280;6524;51.368;11.984;2023-09-18T22:27:41;155758.41;;;16.17;77.70
12913;BME280;6524;51.368;11.984;2023-09-18T22:32:41;155738.72;;;16.09;78.43
12913;BME280;6524;51.368;11.984;2023-09-18T22:37:44;155725.63;;;16.04;77.69
12913;BME280;6524;51.368;11.984;2023-09-18T22:59:08;155726.91;;;16.05;77.66
12913;BME280;6524;51.368;11.984;2023-09-18T23:04:10;155766.25;;;16.20;77.29
12913;BME280;6524;51.368;11.984;2023-09-18T23:09:14;155826.47;;;16.44;76.25
12913;BME280;6524;51.368;11.984;2023-09-18T23:14:15;155846.13;;;16.51;75.83
12913;BME280;6524;51.368;11.984;2023-09-18T23:19:17;155914.22;;;16.78;75.32
12913;BME280;6524;51.368;11.984;2023-09-18T23:24:23;155871.00;;;16.61;76.55
12913;BME280;6524;51.368;11.984;2023-09-18T23:29:24;155860.56;;;16.57;76.25
12913;BME280;6524;51.368;11.984;2023-09-18T23:34:26;155805.53;;;16.35;77.44
12913;BME280;6524;51.368;11.984;2023-09-18T23:39:26;155758.41;;;16.17;78.03
12913;BME280;6524;51.368;11.984;2023-09-18T23:44:29;155730.88;;;16.06;79.04
12913;BME280;6524;51.368;11.984;2023-09-18T23:49:32;155719.06;;;16.02;78.83
12913;BME280;6524;51.368;11.984;2023-09-18T23:54:35;155705.94;;;15.97;79.42
12913;BME280;6524;51.368;11.984;2023-09-18T23:59:36;155679.78;;;15.86;79.60
